createdAt,value
2018-09-04T00:02:21.786Z,4.63
2018-09-04T00:04:50.911Z,4.23
2018-09-04T00:07:21.705Z,5.97
2018-09-04T00:09:51.229Z,7.00
2018-09-04T00:12:20.419Z,4.10
2018-09-04T00:14:49.413Z,4.40
2018-09-04T00:17:18.494Z,4.80
2018-09-04T00:19:47.538Z,7.70
2018-09-04T00:22:16.471Z,5.07
2018-09-04T00:24:45.445Z,5.70
2018-09-04T00:27:14.490Z,4.43
2018-09-04T00:29:43.481Z,4.57
2018-09-04T00:32:12.537Z,6.63
2018-09-04T00:34:41.486Z,5.60
2018-09-04T00:37:10.770Z,4.47
2018-09-04T00:39:39.807Z,5.70
2018-09-04T00:42:08.942Z,5.63
2018-09-04T00:44:38.002Z,9.57
2018-09-04T00:47:06.978Z,6.10
2018-09-04T00:49:36.071Z,5.50
2018-09-04T00:52:05.050Z,5.47
2018-09-04T00:54:34.109Z,4.20
2018-09-04T00:57:03.070Z,4.43
2018-09-04T00:59:32.021Z,7.47
2018-09-04T01:02:01.295Z,6.30
2018-09-04T01:04:30.262Z,6.67
2018-09-04T01:06:59.283Z,8.70
2018-09-04T01:09:28.285Z,7.07
2018-09-04T01:11:57.355Z,5.60
2018-09-04T01:14:26.363Z,6.47
2018-09-04T01:16:55.306Z,5.67
2018-09-04T01:19:24.370Z,6.83
2018-09-04T01:21:53.330Z,7.23
2018-09-04T01:24:22.332Z,6.27
2018-09-04T01:26:51.290Z,7.30
2018-09-04T01:29:20.358Z,5.30
2018-09-04T01:31:49.717Z,6.07
2018-09-04T01:34:18.741Z,7.07
2018-09-04T01:36:47.865Z,4.80
2018-09-04T01:39:16.789Z,7.17
2018-09-04T01:41:45.843Z,6.60
2018-09-04T01:44:14.777Z,5.63
2018-09-04T01:46:43.864Z,6.17
2018-09-04T01:49:12.873Z,6.43
2018-09-04T01:51:41.946Z,9.10
2018-09-04T01:54:10.905Z,7.77
2018-09-04T01:56:39.900Z,6.43
2018-09-04T01:59:08.873Z,7.17
2018-09-04T02:01:37.972Z,6.20
2018-09-04T02:04:07.006Z,8.10
2018-09-04T02:06:36.018Z,6.20
2018-09-04T02:09:06.190Z,7.20
2018-09-04T02:11:35.150Z,5.50
2018-09-04T02:14:04.394Z,6.40
2018-09-04T02:16:33.553Z,8.33
2018-09-04T02:19:02.605Z,8.77
2018-09-04T02:21:31.620Z,7.80
2018-09-04T02:24:00.622Z,6.70
2018-09-04T02:26:29.609Z,7.50
2018-09-04T02:28:58.605Z,6.37
2018-09-04T02:31:27.639Z,5.40
2018-09-04T02:33:56.590Z,5.03
2018-09-04T02:36:25.537Z,6.30
2018-09-04T02:38:54.500Z,5.23
2018-09-04T02:41:23.485Z,7.07
2018-09-04T02:43:52.533Z,8.73
2018-09-04T02:46:21.629Z,6.13
2018-09-04T02:48:50.633Z,7.60
2018-09-04T02:51:19.882Z,8.33
2018-09-04T02:53:48.953Z,5.90
2018-09-04T02:56:18.067Z,7.30
2018-09-04T02:58:47.004Z,5.77
2018-09-04T03:01:15.919Z,5.93
2018-09-04T03:03:44.911Z,7.40
2018-09-04T03:06:13.932Z,5.30
2018-09-04T03:08:42.909Z,7.53
2018-09-04T03:11:11.901Z,8.87
2018-09-04T03:13:40.924Z,7.87
2018-09-04T03:16:09.909Z,6.60
2018-09-04T03:18:38.968Z,8.77
2018-09-04T03:21:07.927Z,11.00
2018-09-04T03:23:36.993Z,8.47
2018-09-04T03:26:06.065Z,8.53
2018-09-04T03:28:35.160Z,6.10
2018-09-04T03:31:04.255Z,5.90
2018-09-04T03:33:33.222Z,6.40
2018-09-04T03:36:02.262Z,6.67
2018-09-04T03:38:31.317Z,6.37
2018-09-04T03:41:00.532Z,9.27
2018-09-04T03:43:29.566Z,5.33
2018-09-04T03:45:58.666Z,6.40
2018-09-04T03:48:27.697Z,4.60
2018-09-04T03:50:56.698Z,6.20
2018-09-04T03:53:25.743Z,4.93
2018-09-04T03:55:54.802Z,6.73
2018-09-04T03:58:23.901Z,6.70
2018-09-04T04:00:52.939Z,7.10
2018-09-04T04:03:21.973Z,5.57
2018-09-04T04:05:50.956Z,9.40
2018-09-04T04:08:19.953Z,8.40
2018-09-04T04:10:48.973Z,7.83
2018-09-04T04:13:17.913Z,5.40
2018-09-04T04:15:47.007Z,8.00
2018-09-04T04:18:15.999Z,10.27
2018-09-04T04:20:49.346Z,7.60
2018-09-04T04:23:18.402Z,9.47
2018-09-04T04:25:47.453Z,8.47
2018-09-04T04:28:16.531Z,6.80
2018-09-04T04:30:45.535Z,7.50
2018-09-04T04:33:14.584Z,9.80
2018-09-04T04:35:43.831Z,9.30
2018-09-04T04:38:12.944Z,8.37
2018-09-04T04:40:41.978Z,8.77
2018-09-04T04:43:11.380Z,8.10
2018-09-04T04:45:41.062Z,7.23
2018-09-04T04:48:10.229Z,5.93
2018-09-04T04:50:39.092Z,8.03
2018-09-04T04:53:08.110Z,6.23
2018-09-04T04:55:37.100Z,7.80
2018-09-04T04:58:06.109Z,7.67
2018-09-04T05:00:35.130Z,7.27
2018-09-04T05:03:04.142Z,7.10
2018-09-04T05:05:33.094Z,7.17
2018-09-04T05:08:02.215Z,6.43
2018-09-04T05:10:31.278Z,6.00
2018-09-04T05:13:00.457Z,4.97
2018-09-04T05:15:29.461Z,9.47
2018-09-04T05:17:58.485Z,5.80
2018-09-04T05:20:28.977Z,10.20
2018-09-04T05:22:58.090Z,9.70
2018-09-04T05:25:27.100Z,6.50
2018-09-04T05:27:56.122Z,8.20
2018-09-04T05:30:25.050Z,7.07
2018-09-04T05:33:01.887Z,8.77
2018-09-04T05:35:37.889Z,7.50
2018-09-04T05:38:06.936Z,4.37
2018-09-04T05:40:35.925Z,7.50
2018-09-04T05:43:07.132Z,6.37
2018-09-04T05:45:37.255Z,6.60
2018-09-04T05:48:11.278Z,9.67
2018-09-04T05:50:40.746Z,4.87
2018-09-04T05:53:09.822Z,7.23
2018-09-04T05:55:38.842Z,6.00
2018-09-04T05:58:07.781Z,9.40
2018-09-04T06:00:45.685Z,5.70
2018-09-04T06:03:14.753Z,8.27
2018-09-04T06:05:44.866Z,7.77
2018-09-04T06:08:13.903Z,6.23
2018-09-04T06:10:42.934Z,4.93
2018-09-04T06:13:11.944Z,7.00
2018-09-04T06:15:41.734Z,6.33
2018-09-04T06:18:11.870Z,3.43
2018-09-04T06:20:40.955Z,4.83
2018-09-04T06:23:09.973Z,6.03
2018-09-04T06:25:38.970Z,10.73
2018-09-04T06:28:07.997Z,7.60
2018-09-04T06:30:37.147Z,6.73
2018-09-04T06:33:06.204Z,7.73
2018-09-04T06:35:35.278Z,6.93
2018-09-04T06:38:04.218Z,6.70
2018-09-04T06:40:33.254Z,6.10
2018-09-04T06:43:02.231Z,5.93
2018-09-04T06:45:31.341Z,4.87
2018-09-04T06:48:00.257Z,5.63
2018-09-04T06:50:29.247Z,5.17
2018-09-04T06:52:58.145Z,6.70
2018-09-04T06:55:27.223Z,7.53
2018-09-04T06:57:56.178Z,5.70
2018-09-04T07:00:25.390Z,8.10
2018-09-04T07:02:54.306Z,6.17
2018-09-04T07:05:23.395Z,7.60
2018-09-04T07:07:52.594Z,4.47
2018-09-04T07:10:21.686Z,7.77
2018-09-04T07:12:50.700Z,5.83
2018-09-04T07:15:19.709Z,5.83
2018-09-04T07:17:48.735Z,6.60
2018-09-04T07:20:18.133Z,7.00
2018-09-04T07:22:47.186Z,7.87
2018-09-04T07:25:16.157Z,7.10
2018-09-04T07:27:45.173Z,6.27
2018-09-04T07:30:14.290Z,6.27
2018-09-04T07:32:43.348Z,6.90
2018-09-04T07:35:12.443Z,8.93
2018-09-04T07:37:42.602Z,6.23
2018-09-04T07:40:21.287Z,7.00
2018-09-04T07:42:51.898Z,5.33
2018-09-04T07:45:21.146Z,8.60
2018-09-04T07:47:50.222Z,5.00
2018-09-04T07:50:19.175Z,6.60
2018-09-04T07:52:48.185Z,6.90
2018-09-04T07:55:17.153Z,7.13
2018-09-04T07:57:46.171Z,6.10
2018-09-04T08:00:15.258Z,8.13
2018-09-04T08:02:44.281Z,8.60
2018-09-04T08:05:13.321Z,6.10
2018-09-04T08:07:42.415Z,6.20
2018-09-04T08:10:11.540Z,9.30
2018-09-04T08:12:40.663Z,5.40
2018-09-04T08:15:09.840Z,6.23
2018-09-04T08:17:38.812Z,7.90
2018-09-04T08:20:07.842Z,6.17
2018-09-04T08:22:36.918Z,5.30
2018-09-04T08:25:06.017Z,5.60
2018-09-04T08:27:35.047Z,5.93
2018-09-04T08:30:04.186Z,6.00
2018-09-04T08:32:33.255Z,6.53
2018-09-04T08:35:02.278Z,6.10
2018-09-04T08:37:31.273Z,4.07
2018-09-04T08:40:00.348Z,5.63
2018-09-04T08:42:29.348Z,6.03
2018-09-04T08:44:58.374Z,5.40
2018-09-04T08:47:27.389Z,4.40
2018-09-04T08:49:56.503Z,3.40
2018-09-04T08:52:25.529Z,3.50
2018-09-04T08:54:54.986Z,3.80
2018-09-04T08:57:24.173Z,3.50
2018-09-04T08:59:53.177Z,2.70
2018-09-04T09:02:22.250Z,2.87
2018-09-04T09:04:51.384Z,2.93
2018-09-04T09:07:20.393Z,3.47
2018-09-04T09:09:49.461Z,2.80
2018-09-04T09:12:18.579Z,4.23
2018-09-04T09:14:47.578Z,3.03
2018-09-04T09:17:16.565Z,3.43
2018-09-04T09:19:45.474Z,4.33
2018-09-04T09:22:14.523Z,3.40
2018-09-04T09:24:43.600Z,2.73
2018-09-04T09:27:13.226Z,3.93
2018-09-04T09:29:42.197Z,2.97
2018-09-04T09:32:11.207Z,2.20
2018-09-04T09:34:40.218Z,2.50
2018-09-04T09:37:09.188Z,2.27
2018-09-04T09:39:38.303Z,3.00
2018-09-04T09:42:07.465Z,1.97
2018-09-04T09:44:36.478Z,2.10
2018-09-04T09:47:05.915Z,3.60
2018-09-04T09:49:34.957Z,2.40
2018-09-04T09:52:03.952Z,2.10
2018-09-04T09:54:32.921Z,2.70
2018-09-04T09:57:01.874Z,3.13
2018-09-04T09:59:30.952Z,2.63
2018-09-04T10:02:05.108Z,1.70
2018-09-04T10:04:34.190Z,2.77
2018-09-04T10:07:03.168Z,2.90
2018-09-04T10:09:32.234Z,2.60
2018-09-04T10:12:01.291Z,2.67
2018-09-04T10:14:30.523Z,3.00
2018-09-04T10:16:59.658Z,3.33
2018-09-04T10:19:28.697Z,2.37
2018-09-04T10:21:57.717Z,4.17
2018-09-04T10:24:26.794Z,2.93
2018-09-04T10:26:56.051Z,2.10
2018-09-04T10:29:25.395Z,2.40
2018-09-04T10:31:54.438Z,2.87
2018-09-04T10:34:23.474Z,2.87
2018-09-04T10:36:52.500Z,3.07
2018-09-04T10:39:27.000Z,3.40
2018-09-04T10:41:56.507Z,3.10
2018-09-04T10:44:25.850Z,2.50
2018-09-04T10:46:54.822Z,2.83
2018-09-04T10:49:23.845Z,2.57
2018-09-04T10:51:52.856Z,3.43
2018-09-04T10:54:22.020Z,2.83
2018-09-04T10:56:51.180Z,5.03
2018-09-04T10:59:20.182Z,3.47
2018-09-04T11:01:49.224Z,2.93
2018-09-04T11:04:18.357Z,2.93
2018-09-04T11:06:47.441Z,3.30
2018-09-04T11:09:16.745Z,2.80
2018-09-04T11:11:45.755Z,2.20
2018-09-04T11:14:14.751Z,3.90
2018-09-04T11:16:43.806Z,2.80
2018-09-04T11:19:12.873Z,2.67
2018-09-04T11:21:41.815Z,3.30
2018-09-04T11:24:10.879Z,2.33
2018-09-04T11:26:40.073Z,2.63
2018-09-04T11:29:10.465Z,3.93
2018-09-04T11:31:39.696Z,3.23
2018-09-04T11:34:08.732Z,3.00
2018-09-04T11:36:37.686Z,2.60
2018-09-04T11:39:09.086Z,2.70
2018-09-04T11:41:38.514Z,2.20
2018-09-04T11:44:07.580Z,2.80
2018-09-04T11:46:36.542Z,2.60
2018-09-04T11:49:05.675Z,2.00
2018-09-04T11:51:34.625Z,2.60
2018-09-04T11:54:03.647Z,2.90
2018-09-04T11:56:36.713Z,3.30
2018-09-04T11:59:05.869Z,3.13
2018-09-04T12:01:35.081Z,2.50
2018-09-04T12:04:04.235Z,2.47
2018-09-04T12:06:33.313Z,3.53
2018-09-04T12:09:02.286Z,2.63
2018-09-04T12:11:31.506Z,3.80
2018-09-04T12:14:00.532Z,3.03
2018-09-04T12:16:29.635Z,2.67
2018-09-04T12:18:58.615Z,3.27
2018-09-04T12:21:27.635Z,3.27
2018-09-04T12:23:56.629Z,3.17
2018-09-04T12:26:25.838Z,5.40
2018-09-04T12:28:54.768Z,3.63
2018-09-04T12:31:23.869Z,3.70
2018-09-04T12:33:52.944Z,3.83
2018-09-04T12:36:21.984Z,7.40
2018-09-04T12:38:51.079Z,2.60
2018-09-04T12:41:20.099Z,2.67
2018-09-04T12:43:49.113Z,2.23
2018-09-04T12:46:18.081Z,2.43
2018-09-04T12:48:48.998Z,3.00
2018-09-04T12:51:18.021Z,3.10
2018-09-04T12:53:47.345Z,2.40
2018-09-04T12:56:16.372Z,2.70
2018-09-04T12:58:45.476Z,2.63
2018-09-04T13:01:14.507Z,2.30
2018-09-04T13:03:43.543Z,2.70
2018-09-04T13:06:12.826Z,2.93
2018-09-04T13:08:41.915Z,2.93
2018-09-04T13:11:10.949Z,3.30
2018-09-04T13:13:40.129Z,2.13
2018-09-04T13:16:09.307Z,2.73
2018-09-04T13:18:38.391Z,2.30
2018-09-04T13:21:07.398Z,2.70
2018-09-04T13:23:36.670Z,2.80
2018-09-04T13:26:05.823Z,2.10
2018-09-04T13:28:35.274Z,3.23
2018-09-04T13:31:04.586Z,3.57
2018-09-04T13:33:33.542Z,2.60
2018-09-04T13:36:02.562Z,3.00
2018-09-04T13:38:31.548Z,2.17
2018-09-04T13:41:05.561Z,2.70
2018-09-04T13:43:34.549Z,2.67
2018-09-04T13:46:03.733Z,3.27
2018-09-04T13:48:34.216Z,2.60
2018-09-04T13:51:03.437Z,3.60
2018-09-04T13:53:32.557Z,2.80
2018-09-04T13:56:01.619Z,3.07
2018-09-04T13:58:30.595Z,3.33
2018-09-04T14:00:59.617Z,2.80
2018-09-04T14:03:28.691Z,2.87
2018-09-04T14:05:57.766Z,2.20
2018-09-04T14:08:26.780Z,2.70
2018-09-04T14:10:55.840Z,3.03
2018-09-04T14:13:24.921Z,2.70
2018-09-04T14:15:55.942Z,2.30
2018-09-04T14:18:24.902Z,3.57
2018-09-04T14:20:53.885Z,2.40
2018-09-04T14:23:23.243Z,2.67
2018-09-04T14:25:52.405Z,3.77
2018-09-04T14:28:40.968Z,2.87
2018-09-04T14:30:50.763Z,2.27
2018-09-04T14:33:19.641Z,3.03
2018-09-04T14:35:48.615Z,3.77
2018-09-04T14:38:17.646Z,2.70
2018-09-04T14:40:46.683Z,2.57
2018-09-04T14:43:15.670Z,3.57
2018-09-04T14:45:44.686Z,4.30
2018-09-04T14:48:13.794Z,4.33
2018-09-04T14:50:42.740Z,3.30
2018-09-04T14:53:11.656Z,3.87
2018-09-04T14:55:40.705Z,2.90
2018-09-04T14:58:09.718Z,2.63
2018-09-04T15:00:38.870Z,2.60
2018-09-04T15:03:07.822Z,2.33
2018-09-04T15:05:36.798Z,3.67
2018-09-04T15:08:05.726Z,3.30
2018-09-04T15:10:34.767Z,3.17
2018-09-04T15:13:03.816Z,2.70
2018-09-04T15:15:32.818Z,3.70
2018-09-04T15:18:02.005Z,2.37
2018-09-04T15:20:31.016Z,2.63
2018-09-04T15:23:00.041Z,3.47
2018-09-04T15:25:29.464Z,2.50
2018-09-04T15:27:58.779Z,3.47
2018-09-04T15:30:28.110Z,3.37
2018-09-04T15:32:57.109Z,2.77
2018-09-04T15:35:26.173Z,2.87
2018-09-04T15:37:55.165Z,2.43
2018-09-04T15:40:24.166Z,2.70
2018-09-04T15:42:53.238Z,2.60
2018-09-04T15:45:22.303Z,2.60
2018-09-04T15:47:51.268Z,2.60
2018-09-04T15:50:20.322Z,2.40
2018-09-04T15:52:49.351Z,2.30
2018-09-04T15:55:18.335Z,3.20
2018-09-04T15:57:47.365Z,2.77
2018-09-04T16:00:16.493Z,2.30
2018-09-04T16:02:45.433Z,2.60
2018-09-04T16:05:14.501Z,2.50
2018-09-04T16:07:43.541Z,3.20
2018-09-04T16:10:12.566Z,3.13
2018-09-04T16:12:41.561Z,2.87
2018-09-04T16:15:10.575Z,3.10
2018-09-04T16:17:39.637Z,2.60
2018-09-04T16:20:08.605Z,2.67
2018-09-04T16:22:37.687Z,2.70
2018-09-04T16:25:06.670Z,4.10
2018-09-04T16:27:35.642Z,2.63
2018-09-04T16:30:04.802Z,2.20
2018-09-04T16:32:33.906Z,2.70
2018-09-04T16:35:03.066Z,3.77
2018-09-04T16:37:32.074Z,2.70
2018-09-04T16:40:01.196Z,3.13
2018-09-04T16:42:30.226Z,2.90
2018-09-04T16:44:59.215Z,2.77
2018-09-04T16:47:28.282Z,2.60
2018-09-04T16:49:57.391Z,2.30
2018-09-04T16:52:26.564Z,3.67
2018-09-04T16:54:55.657Z,2.67
2018-09-04T16:57:24.670Z,3.70
2018-09-04T16:59:53.624Z,2.77
2018-09-04T17:02:22.758Z,4.30
2018-09-04T17:04:51.844Z,2.50
2018-09-04T17:07:20.803Z,2.97
2018-09-04T17:09:49.781Z,2.33
2018-09-04T17:12:18.773Z,4.20
2018-09-04T17:14:47.779Z,2.77
2018-09-04T17:17:17.553Z,3.23
2018-09-04T17:19:46.673Z,2.70
2018-09-04T17:22:16.138Z,3.97
2018-09-04T17:24:45.180Z,4.40
2018-09-04T17:27:14.176Z,3.23
2018-09-04T17:29:43.180Z,3.10
2018-09-04T17:32:12.205Z,2.37
2018-09-04T17:34:41.133Z,2.80
2018-09-04T17:37:10.147Z,2.63
2018-09-04T17:39:39.357Z,2.50
2018-09-04T17:42:08.544Z,3.57
2018-09-04T17:44:37.587Z,3.00
2018-09-04T17:47:07.021Z,3.93
2018-09-04T17:49:35.990Z,3.90
2018-09-04T17:52:05.022Z,5.33
2018-09-04T17:54:34.005Z,5.80
2018-09-04T17:57:02.985Z,4.47
2018-09-04T17:59:31.938Z,4.80
2018-09-04T18:02:01.422Z,3.83
2018-09-04T18:04:30.762Z,4.07
2018-09-04T18:06:59.806Z,3.63
2018-09-04T18:09:28.807Z,3.63
2018-09-04T18:11:57.889Z,4.00
2018-09-04T18:14:26.817Z,3.20
2018-09-04T18:16:55.937Z,3.20
2018-09-04T18:19:25.023Z,3.00
2018-09-04T18:21:54.169Z,4.23
2018-09-04T18:24:23.186Z,4.20
2018-09-04T18:26:52.346Z,3.20
2018-09-04T18:29:21.457Z,3.00
2018-09-04T18:31:50.570Z,3.37
2018-09-04T18:34:19.552Z,3.27
2018-09-04T18:36:48.657Z,3.60
2018-09-04T18:39:17.566Z,3.20
2018-09-04T18:41:46.640Z,3.57
2018-09-04T18:44:15.606Z,4.07
2018-09-04T18:46:44.582Z,2.80
2018-09-04T18:49:13.570Z,3.37
2018-09-04T18:51:42.510Z,3.37
2018-09-04T18:54:11.585Z,2.80
2018-09-04T18:56:40.737Z,3.83
2018-09-04T18:59:09.707Z,4.50
2018-09-04T19:01:38.711Z,3.30
2018-09-04T19:04:07.758Z,3.70
2018-09-04T19:06:37.082Z,3.57
2018-09-04T19:09:07.236Z,3.57
2018-09-04T19:11:36.381Z,2.63
2018-09-04T19:14:05.502Z,3.90
2018-09-04T19:16:37.807Z,2.83
2018-09-04T19:19:06.756Z,4.00
2018-09-04T19:21:35.818Z,3.60
2018-09-04T19:24:04.901Z,3.53
2018-09-04T19:26:33.883Z,2.60
2018-09-04T19:29:03.490Z,3.50
2018-09-04T19:31:32.579Z,2.87
2018-09-04T19:34:01.556Z,4.10
2018-09-04T19:36:30.578Z,5.10
2018-09-04T19:38:59.685Z,5.80
2018-09-04T19:41:28.702Z,5.13
2018-09-04T19:43:58.005Z,4.70
2018-09-04T19:46:27.165Z,4.70
2018-09-04T19:48:56.154Z,4.27
2018-09-04T19:51:25.186Z,9.17
2018-09-04T19:53:54.562Z,9.50
2018-09-04T19:56:23.630Z,14.57
2018-09-04T19:58:52.716Z,18.90
2018-09-04T20:01:21.614Z,16.70
2018-09-04T20:03:50.946Z,10.07
2018-09-04T20:06:19.985Z,4.50
2018-09-04T20:08:49.501Z,4.37
2018-09-04T20:11:18.472Z,3.80
2018-09-04T20:13:47.499Z,4.33
2018-09-04T20:16:16.526Z,3.20
2018-09-04T20:18:45.575Z,3.90
2018-09-04T20:21:14.526Z,4.07
2018-09-04T20:23:43.660Z,3.43
2018-09-04T20:26:12.938Z,4.97
2018-09-04T20:28:41.938Z,3.87
2018-09-04T20:31:10.945Z,5.43
2018-09-04T20:33:40.056Z,4.00
2018-09-04T20:36:09.145Z,4.20
2018-09-04T20:38:38.302Z,3.67
2018-09-04T20:41:07.333Z,4.27
2018-09-04T20:43:36.274Z,4.30
2018-09-04T20:46:05.274Z,3.67
2018-09-04T20:48:34.318Z,3.97
2018-09-04T20:51:03.583Z,5.27
2018-09-04T20:53:32.896Z,3.73
2018-09-04T20:56:01.991Z,4.80
2018-09-04T20:58:41.870Z,4.30
2018-09-04T21:01:21.721Z,3.83
2018-09-04T21:04:01.777Z,3.37
2018-09-04T21:06:41.654Z,4.27
2018-09-04T21:10:21.868Z,4.30
2018-09-04T21:12:51.395Z,2.80
2018-09-04T21:15:21.138Z,6.20
2018-09-04T21:17:50.642Z,3.83
2018-09-04T21:20:20.002Z,4.40
2018-09-04T21:22:49.415Z,3.83
2018-09-04T21:25:18.792Z,4.10
2018-09-04T21:27:48.057Z,4.13
2018-09-04T21:30:17.319Z,3.70
2018-09-04T21:32:46.429Z,3.80
2018-09-04T21:35:15.680Z,3.67
2018-09-04T21:37:44.986Z,3.80
2018-09-04T21:40:14.270Z,4.30
2018-09-04T21:42:43.647Z,4.90
2018-09-04T21:45:12.810Z,4.07
2018-09-04T21:47:42.086Z,4.47
2018-09-04T21:50:11.733Z,3.00
2018-09-04T21:52:40.991Z,3.50
2018-09-04T21:55:10.498Z,4.37
2018-09-04T21:57:39.717Z,3.90
2018-09-04T22:00:09.944Z,4.80
2018-09-04T22:02:39.325Z,3.43
2018-09-04T22:05:08.685Z,3.70
2018-09-04T22:07:37.883Z,4.10
2018-09-04T22:10:07.151Z,3.40
2018-09-04T22:12:36.421Z,3.93
2018-09-04T22:15:05.634Z,5.40
2018-09-04T22:17:34.920Z,4.80
2018-09-04T22:20:04.124Z,3.50
2018-09-04T22:22:33.423Z,3.40
2018-09-04T22:25:02.622Z,3.80
2018-09-04T22:27:31.786Z,5.70
2018-09-04T22:30:01.203Z,3.73
2018-09-04T22:32:30.514Z,4.07
2018-09-04T22:34:59.843Z,4.40
2018-09-04T22:37:29.139Z,4.40
2018-09-04T22:39:58.534Z,4.00
2018-09-04T22:42:27.761Z,4.50
2018-09-04T22:44:57.021Z,4.20
2018-09-04T22:47:26.295Z,4.43
2018-09-04T22:50:00.950Z,4.60
2018-09-04T22:52:30.642Z,6.07
2018-09-04T22:55:02.303Z,5.57
2018-09-04T22:57:31.986Z,4.50
2018-09-04T23:00:01.325Z,5.57
2018-09-04T23:02:30.681Z,5.77
2018-09-04T23:04:59.929Z,4.20
2018-09-04T23:07:29.204Z,4.20
2018-09-04T23:09:58.505Z,4.20
2018-09-04T23:12:27.704Z,4.37
2018-09-04T23:14:57.393Z,3.77
2018-09-04T23:17:26.547Z,6.07
2018-09-04T23:19:55.728Z,5.03
2018-09-04T23:22:24.929Z,5.50
2018-09-04T23:24:54.128Z,5.13
2018-09-04T23:27:23.338Z,3.50
2018-09-04T23:29:52.640Z,4.50
2018-09-04T23:32:21.819Z,4.63
2018-09-04T23:34:51.087Z,4.53
2018-09-04T23:37:20.327Z,4.23
2018-09-04T23:39:49.704Z,4.60
2018-09-04T23:42:19.075Z,4.77
2018-09-04T23:44:48.024Z,4.47
2018-09-04T23:47:17.090Z,4.73
2018-09-04T23:49:46.116Z,5.70
2018-09-04T23:52:15.178Z,3.97
2018-09-04T23:54:44.133Z,3.63
2018-09-04T23:57:13.216Z,5.40
2018-09-04T23:59:42.196Z,4.00
